createdAt,value
2019-01-19T00:04:22.433Z,74.80
2019-01-19T00:09:39.021Z,74.10
2019-01-19T00:14:40.621Z,72.60
2019-01-19T00:20:07.132Z,74.90
2019-01-19T00:25:21.591Z,75.30
2019-01-19T00:30:29.801Z,77.30
2019-01-19T00:35:47.589Z,76.70
2019-01-19T00:41:08.372Z,75.90
2019-01-19T00:46:16.201Z,77.50
2019-01-19T00:51:30.363Z,76.60
2019-01-19T00:56:53.404Z,76.20
2019-01-19T01:02:07.423Z,75.80
2019-01-19T01:07:18.533Z,75.30
2019-01-19T01:12:40.647Z,76.20
2019-01-19T01:17:43.130Z,75.00
2019-01-19T01:23:00.172Z,75.40
2019-01-19T01:28:22.413Z,75.10
2019-01-19T01:33:50.084Z,76.50
2019-01-19T01:38:55.517Z,75.40
2019-01-19T01:44:17.387Z,74.70
2019-01-19T01:49:25.329Z,75.80
2019-01-19T01:54:36.787Z,76.10
2019-01-19T01:59:51.151Z,76.10
2019-01-19T02:05:11.688Z,76.60
2019-01-19T02:10:38.273Z,76.50
2019-01-19T02:16:02.786Z,76.10
2019-01-19T02:21:07.869Z,76.00
2019-01-19T02:26:40.855Z,76.80
2019-01-19T02:31:49.626Z,76.70
2019-01-19T02:37:18.969Z,76.80
2019-01-19T02:42:27.224Z,77.20
2019-01-19T02:47:38.200Z,79.10
2019-01-19T02:52:46.250Z,78.10
2019-01-19T02:58:06.510Z,77.00
2019-01-19T03:03:23.877Z,76.70
2019-01-19T03:08:37.780Z,76.50
2019-01-19T03:14:01.823Z,76.70
2019-01-19T03:19:36.877Z,76.50
2019-01-19T03:24:44.738Z,76.90
2019-01-19T03:29:55.597Z,76.80
2019-01-19T03:35:03.591Z,77.40
2019-01-19T03:40:35.722Z,77.20
2019-01-19T03:45:40.805Z,76.80
2019-01-19T03:50:55.093Z,77.60
2019-01-19T03:56:12.192Z,77.30
2019-01-19T04:01:41.469Z,77.90
2019-01-19T04:07:09.783Z,78.60
2019-01-19T04:12:33.514Z,77.50
2019-01-19T04:17:44.684Z,77.40
2019-01-19T04:22:45.961Z,76.90
2019-01-19T04:27:47.237Z,77.70
2019-01-19T04:32:48.515Z,77.50
2019-01-19T04:37:49.790Z,78.70
2019-01-19T04:42:51.373Z,77.70
2019-01-19T04:47:53.033Z,77.40
2019-01-19T04:52:54.321Z,77.10
2019-01-19T04:57:55.609Z,76.90
2019-01-19T05:02:56.899Z,78.70
2019-01-19T05:07:58.173Z,78.60
2019-01-19T05:12:59.463Z,75.90
2019-01-19T05:18:01.050Z,78.10
2019-01-19T05:23:02.327Z,77.00
2019-01-19T05:28:03.624Z,77.60
2019-01-19T05:33:05.251Z,77.80
2019-01-19T05:38:06.521Z,77.30
2019-01-19T05:43:08.082Z,78.70
2019-01-19T05:48:09.428Z,78.50
2019-01-19T05:53:11.065Z,78.40
2019-01-19T05:58:12.338Z,79.10
2019-01-19T06:03:13.647Z,79.30
2019-01-19T06:08:14.928Z,78.70
2019-01-19T06:13:16.212Z,77.70
2019-01-19T06:18:17.498Z,79.30
2019-01-19T06:23:18.780Z,78.30
2019-01-19T06:28:20.068Z,79.90
2019-01-19T06:33:21.323Z,79.80
2019-01-19T06:38:22.593Z,79.10
2019-01-19T06:43:23.873Z,77.20
2019-01-19T06:48:25.169Z,78.20
2019-01-19T06:53:26.442Z,78.40
2019-01-19T06:58:27.724Z,78.40
2019-01-19T07:03:29.022Z,78.00
2019-01-19T07:08:30.677Z,78.20
2019-01-19T07:13:31.957Z,78.80
2019-01-19T07:18:33.232Z,78.40
2019-01-19T07:23:34.819Z,79.10
2019-01-19T07:28:36.097Z,77.90
2019-01-19T07:33:37.450Z,77.20
2019-01-19T07:38:38.717Z,77.80
2019-01-19T07:43:40.338Z,77.90
2019-01-19T07:48:41.817Z,77.50
2019-01-19T07:53:43.104Z,76.60
2019-01-19T07:58:44.382Z,76.40
2019-01-19T08:03:45.686Z,77.80
2019-01-19T08:08:46.957Z,78.10
2019-01-19T08:13:48.237Z,77.60
2019-01-19T08:18:49.882Z,77.80
2019-01-19T08:23:51.171Z,78.80
2019-01-19T08:28:55.590Z,77.70
2019-01-19T08:33:56.869Z,80.00
2019-01-19T08:38:58.586Z,76.50
2019-01-19T08:44:00.209Z,75.50
2019-01-19T08:49:01.493Z,74.30
2019-01-19T08:54:03.012Z,74.00
2019-01-19T08:59:04.513Z,74.80
2019-01-19T09:04:05.809Z,75.50
2019-01-19T09:09:07.121Z,75.80
2019-01-19T09:14:08.880Z,76.50
2019-01-19T09:19:10.865Z,74.90
2019-01-19T09:24:13.014Z,74.50
2019-01-19T09:29:14.309Z,74.60
2019-01-19T09:34:15.563Z,73.90
2019-01-19T09:39:16.857Z,73.60
2019-01-19T09:44:18.133Z,73.00
2019-01-19T09:49:19.809Z,72.40
2019-01-19T09:54:21.214Z,58.00
2019-01-19T09:59:22.513Z,49.60
2019-01-19T10:04:23.809Z,42.90
2019-01-19T10:09:25.409Z,39.70
2019-01-19T10:14:26.692Z,40.00
2019-01-19T10:19:28.001Z,40.90
2019-01-19T10:24:29.638Z,36.60
2019-01-19T10:29:30.917Z,36.50
2019-01-19T10:34:32.195Z,35.80
2019-01-19T10:39:33.503Z,35.10
2019-01-19T10:44:34.865Z,33.70
2019-01-19T10:49:36.182Z,31.80
2019-01-19T10:54:37.454Z,28.00
2019-01-19T10:59:39.161Z,27.80
2019-01-19T11:04:40.469Z,28.00
2019-01-19T11:09:42.077Z,29.20
2019-01-19T11:14:43.367Z,28.90
2019-01-19T11:19:44.644Z,27.00
2019-01-19T11:24:46.290Z,26.30
2019-01-19T11:29:47.684Z,27.20
2019-01-19T11:34:48.974Z,27.50
2019-01-19T11:39:50.251Z,26.50
2019-01-19T11:44:51.915Z,26.00
2019-01-19T11:49:53.186Z,26.60
2019-01-19T11:54:54.948Z,27.00
2019-01-19T11:59:56.229Z,28.00
2019-01-19T12:04:57.545Z,27.80
2019-01-19T12:09:58.817Z,26.60
2019-01-19T12:15:00.256Z,26.20
2019-01-19T12:20:04.848Z,26.40
2019-01-19T12:25:09.838Z,25.90
2019-01-19T12:30:23.078Z,25.50
2019-01-19T12:35:24.356Z,26.70
2019-01-19T12:40:27.633Z,26.20
2019-01-19T12:45:35.705Z,24.30
2019-01-19T12:50:37.001Z,24.60
2019-01-19T12:55:38.311Z,24.80
2019-01-19T13:00:40.095Z,23.50
2019-01-19T13:05:47.913Z,23.50
2019-01-19T13:11:05.541Z,22.20
2019-01-19T13:16:16.670Z,22.40
2019-01-19T13:21:43.487Z,22.40
2019-01-19T13:27:10.030Z,23.10
2019-01-19T13:32:33.944Z,23.10
2019-01-19T13:37:42.088Z,22.90
2019-01-19T13:43:02.114Z,23.40
2019-01-19T13:48:16.673Z,23.00
2019-01-19T13:53:28.184Z,23.30
2019-01-19T13:58:42.577Z,23.60
2019-01-19T14:03:47.696Z,24.70
2019-01-19T14:08:56.003Z,24.10
2019-01-19T14:14:15.792Z,24.30
2019-01-19T14:19:38.581Z,25.10
2019-01-19T14:24:52.715Z,24.90
2019-01-19T14:30:19.134Z,26.00
2019-01-19T14:35:42.445Z,26.50
2019-01-19T14:41:04.226Z,25.50
2019-01-19T14:46:12.160Z,26.30
2019-01-19T14:51:29.503Z,26.60
2019-01-19T14:56:43.781Z,28.50
2019-01-19T15:01:58.327Z,33.30
2019-01-19T15:07:30.890Z,39.10
2019-01-19T15:12:38.982Z,44.30
2019-01-19T15:18:06.471Z,49.30
2019-01-19T15:23:14.343Z,51.80
2019-01-19T15:28:40.235Z,53.30
2019-01-19T15:34:01.977Z,54.20
2019-01-19T15:39:31.049Z,55.90
2019-01-19T15:44:36.133Z,56.70
2019-01-19T15:49:59.318Z,58.60
2019-01-19T15:55:22.584Z,58.70
2019-01-19T16:00:49.214Z,61.60
2019-01-19T16:06:09.493Z,64.40
2019-01-19T16:11:38.525Z,64.40
2019-01-19T16:16:55.934Z,64.90
2019-01-19T16:22:24.897Z,66.50
2019-01-19T16:27:47.425Z,68.80
2019-01-19T16:32:58.490Z,70.10
2019-01-19T16:38:12.648Z,70.00
2019-01-19T16:43:20.573Z,69.20
2019-01-19T16:48:57.797Z,70.10
2019-01-19T16:54:06.068Z,71.90
2019-01-19T16:59:35.412Z,72.90
2019-01-19T17:04:49.088Z,73.10
2019-01-19T17:09:54.180Z,72.70
2019-01-19T17:15:19.215Z,72.70
2019-01-19T17:20:32.969Z,73.70
2019-01-19T17:25:47.261Z,74.20
2019-01-19T17:31:03.903Z,74.00
2019-01-19T17:36:20.973Z,75.70
2019-01-19T17:41:41.533Z,74.60
2019-01-19T17:46:52.506Z,73.70
2019-01-19T17:52:03.215Z,74.20
2019-01-19T17:57:22.852Z,76.90
2019-01-19T18:02:47.779Z,77.50
2019-01-19T18:08:11.087Z,76.50
2019-01-19T18:13:34.431Z,76.80
2019-01-19T18:19:12.461Z,75.90
2019-01-19T18:24:25.887Z,75.30
2019-01-19T18:29:44.169Z,74.60
2019-01-19T18:35:06.090Z,74.40
2019-01-19T18:40:20.013Z,74.40
2019-01-19T18:45:28.100Z,74.10
2019-01-19T18:50:50.941Z,75.30
2019-01-19T18:56:14.451Z,75.50
2019-01-19T19:01:46.972Z,75.30
2019-01-19T19:07:14.917Z,76.20
2019-01-19T19:12:38.336Z,76.40
2019-01-19T19:18:16.878Z,77.10
2019-01-19T19:23:30.977Z,75.60
2019-01-19T19:28:36.076Z,76.20
2019-01-19T19:33:50.081Z,76.40
2019-01-19T19:39:14.885Z,76.80
2019-01-19T19:44:42.014Z,75.70
2019-01-19T19:49:53.109Z,74.60
2019-01-19T19:54:54.172Z,75.80
2019-01-19T19:59:56.021Z,75.70
2019-01-19T20:04:57.350Z,76.30
2019-01-19T20:09:58.705Z,75.90
2019-01-19T20:15:01.323Z,75.70
2019-01-19T20:20:05.809Z,74.30
2019-01-19T20:25:07.105Z,75.10
2019-01-19T20:30:12.484Z,75.60
2019-01-19T20:35:14.175Z,77.50
2019-01-19T20:40:15.445Z,77.00
2019-01-19T20:45:16.716Z,76.40
2019-01-19T20:50:18.194Z,76.30
2019-01-19T20:55:19.505Z,76.00
2019-01-19T21:00:21.157Z,75.50
2019-01-19T21:05:22.469Z,76.30
2019-01-19T21:10:23.757Z,77.10
2019-01-19T21:15:26.219Z,78.60
2019-01-19T21:20:27.473Z,76.90
2019-01-19T21:25:28.895Z,76.60
2019-01-19T21:30:30.550Z,76.60
2019-01-19T21:35:32.265Z,78.20
2019-01-19T21:40:38.961Z,78.10
2019-01-19T21:45:37.419Z,76.50
2019-01-19T21:50:39.038Z,76.90
2019-01-19T21:55:40.723Z,76.70
2019-01-19T22:00:41.999Z,76.90
2019-01-19T22:05:49.512Z,76.00
2019-01-19T22:10:46.996Z,75.50
2019-01-19T22:15:48.415Z,75.20
2019-01-19T22:20:49.906Z,77.10
2019-01-19T22:25:51.475Z,76.50
2019-01-19T22:30:52.754Z,76.20
2019-01-19T22:35:54.024Z,76.70
2019-01-19T22:40:55.300Z,76.70
2019-01-19T22:45:56.566Z,77.20
2019-01-19T22:50:58.256Z,78.00
2019-01-19T22:55:59.684Z,77.40
2019-01-19T23:01:06.086Z,77.50
2019-01-19T23:06:07.426Z,77.50
2019-01-19T23:11:08.718Z,76.40
2019-01-19T23:16:10.025Z,77.30
2019-01-19T23:21:11.296Z,77.30
2019-01-19T23:26:12.981Z,76.70
2019-01-19T23:31:14.257Z,77.00
2019-01-19T23:36:15.530Z,77.20
2019-01-19T23:41:16.798Z,76.10
2019-01-19T23:46:18.178Z,76.00
2019-01-19T23:51:19.563Z,76.20
2019-01-19T23:56:20.843Z,76.50
